sensor_id;sensor_type;location;lat;lon;timestamp;P1;durP1;ratioP1;P2;durP2;ratioP2
51921;SDS011;37948;53.260;6.394;2022-08-01T00:01:40;6.30;;;2.05;;
51921;SDS011;37948;53.260;6.394;2022-08-01T00:04:05;1.85;;;1.42;;
51921;SDS011;37948;53.260;6.394;2022-08-01T00:06:32;4.38;;;1.73;;
51921;SDS011;37948;53.260;6.394;2022-08-01T00:08:58;4.18;;;2.10;;
51921;SDS011;37948;53.260;6.394;2022-08-01T00:11:23;2.92;;;1.83;;
51921;SDS011;37948;53.260;6.394;2022-08-01T00:13:53;3.25;;;1.90;;
51921;SDS011;37948;53.260;6.394;2022-08-01T00:16:19;5.72;;;2.22;;
51921;SDS011;37948;53.260;6.394;2022-08-01T00:18:47;1.48;;;1.45;;
51921;SDS011;37948;53.260;6.394;2022-08-01T00:21:14;7.15;;;2.05;;
51921;SDS011;37948;53.260;6.394;2022-08-01T00:23:40;3.88;;;2.03;;
51921;SDS011;37948;53.260;6.394;2022-08-01T00:26:06;3.67;;;2.67;;
51921;SDS011;37948;53.260;6.394;2022-08-01T00:28:34;5.03;;;2.60;;
51921;SDS011;37948;53.260;6.394;2022-08-01T00:31:00;4.82;;;3.25;;
51921;SDS011;37948;53.260;6.394;2022-08-01T00:33:25;7.70;;;3.38;;
51921;SDS011;37948;53.260;6.394;2022-08-01T00:35:51;7.97;;;2.78;;
51921;SDS011;37948;53.260;6.394;2022-08-01T00:38:17;7.25;;;3.00;;
51921;SDS011;37948;53.260;6.394;2022-08-01T00:40:42;4.88;;;3.22;;
51921;SDS011;37948;53.260;6.394;2022-08-01T00:43:11;7.63;;;2.75;;
51921;SDS011;37948;53.260;6.394;2022-08-01T00:45:36;10.98;;;3.05;;
51921;SDS011;37948;53.260;6.394;2022-08-01T00:48:02;7.25;;;4.05;;
51921;SDS011;37948;53.260;6.394;2022-08-01T00:50:28;10.07;;;3.53;;
51921;SDS011;37948;53.260;6.394;2022-08-01T00:52:54;3.90;;;2.33;;
51921;SDS011;37948;53.260;6.394;2022-08-01T00:55:20;2.72;;;2.20;;
51921;SDS011;37948;53.260;6.394;2022-08-01T00:57:46;7.47;;;2.47;;
51921;SDS011;37948;53.260;6.394;2022-08-01T01:00:16;7.72;;;3.35;;
51921;SDS011;37948;53.260;6.394;2022-08-01T01:02:42;7.28;;;2.20;;
51921;SDS011;37948;53.260;6.394;2022-08-01T01:05:08;5.35;;;2.10;;
51921;SDS011;37948;53.260;6.394;2022-08-01T01:10:36;2.35;;;1.15;;
51921;SDS011;37948;53.260;6.394;2022-08-01T01:15:41;6.65;;;2.28;;
51921;SDS011;37948;53.260;6.394;2022-08-01T01:18:14;5.13;;;1.40;;
51921;SDS011;37948;53.260;6.394;2022-08-01T01:32:22;11.38;;;2.22;;
51921;SDS011;37948;53.260;6.394;2022-08-01T01:34:54;10.40;;;2.88;;
51921;SDS011;37948;53.260;6.394;2022-08-01T01:37:21;7.13;;;2.03;;
51921;SDS011;37948;53.260;6.394;2022-08-01T01:39:51;11.15;;;2.10;;
51921;SDS011;37948;53.260;6.394;2022-08-01T01:42:18;3.58;;;1.65;;
51921;SDS011;37948;53.260;6.394;2022-08-01T01:44:45;6.03;;;1.63;;
51921;SDS011;37948;53.260;6.394;2022-08-01T01:47:13;4.85;;;1.73;;
51921;SDS011;37948;53.260;6.394;2022-08-01T01:49:40;9.52;;;2.55;;
51921;SDS011;37948;53.260;6.394;2022-08-01T01:52:08;7.38;;;1.60;;
51921;SDS011;37948;53.260;6.394;2022-08-01T01:54:37;6.07;;;1.48;;
51921;SDS011;37948;53.260;6.394;2022-08-01T01:57:07;7.38;;;1.52;;
51921;SDS011;37948;53.260;6.394;2022-08-01T01:59:35;4.90;;;1.55;;
51921;SDS011;37948;53.260;6.394;2022-08-01T02:02:04;12.00;;;2.05;;
51921;SDS011;37948;53.260;6.394;2022-08-01T02:04:31;9.63;;;2.20;;
51921;SDS011;37948;53.260;6.394;2022-08-01T02:07:01;10.85;;;2.80;;
51921;SDS011;37948;53.260;6.394;2022-08-01T02:09:31;7.82;;;1.98;;
51921;SDS011;37948;53.260;6.394;2022-08-01T02:11:58;6.68;;;2.50;;
51921;SDS011;37948;53.260;6.394;2022-08-01T02:14:25;11.60;;;2.55;;
51921;SDS011;37948;53.260;6.394;2022-08-01T02:16:52;12.10;;;2.47;;
51921;SDS011;37948;53.260;6.394;2022-08-01T02:19:19;13.23;;;2.95;;
51921;SDS011;37948;53.260;6.394;2022-08-01T02:21:47;11.90;;;3.25;;
51921;SDS011;37948;53.260;6.394;2022-08-01T02:26:52;10.20;;;2.88;;
51921;SDS011;37948;53.260;6.394;2022-08-01T02:29:21;10.15;;;2.65;;
51921;SDS011;37948;53.260;6.394;2022-08-01T02:31:54;8.88;;;2.92;;
51921;SDS011;37948;53.260;6.394;2022-08-01T02:34:19;11.85;;;2.92;;
51921;SDS011;37948;53.260;6.394;2022-08-01T02:36:47;10.68;;;2.88;;
51921;SDS011;37948;53.260;6.394;2022-08-01T02:39:14;10.13;;;3.40;;
51921;SDS011;37948;53.260;6.394;2022-08-01T02:41:43;12.05;;;2.67;;
51921;SDS011;37948;53.260;6.394;2022-08-01T02:44:15;10.82;;;2.25;;
51921;SDS011;37948;53.260;6.394;2022-08-01T02:46:51;11.55;;;3.17;;
51921;SDS011;37948;53.260;6.394;2022-08-01T02:49:20;9.95;;;2.95;;
51921;SDS011;37948;53.260;6.394;2022-08-01T02:51:48;12.52;;;3.97;;
51921;SDS011;37948;53.260;6.394;2022-08-01T02:54:16;9.02;;;2.45;;
51921;SDS011;37948;53.260;6.394;2022-08-01T02:56:43;10.05;;;2.72;;
51921;SDS011;37948;53.260;6.394;2022-08-01T02:59:12;9.63;;;2.83;;
51921;SDS011;37948;53.260;6.394;2022-08-01T03:01:41;12.82;;;3.28;;
51921;SDS011;37948;53.260;6.394;2022-08-01T03:04:10;9.65;;;3.03;;
51921;SDS011;37948;53.260;6.394;2022-08-01T03:06:36;12.07;;;3.15;;
51921;SDS011;37948;53.260;6.394;2022-08-01T03:09:04;10.38;;;2.78;;
51921;SDS011;37948;53.260;6.394;2022-08-01T03:11:32;9.82;;;2.55;;
51921;SDS011;37948;53.260;6.394;2022-08-01T03:14:05;11.88;;;2.42;;
51921;SDS011;37948;53.260;6.394;2022-08-01T03:16:35;12.75;;;3.03;;
51921;SDS011;37948;53.260;6.394;2022-08-01T03:19:03;6.93;;;2.25;;
51921;SDS011;37948;53.260;6.394;2022-08-01T03:21:32;9.20;;;2.50;;
51921;SDS011;37948;53.260;6.394;2022-08-01T03:23:59;11.30;;;2.28;;
51921;SDS011;37948;53.260;6.394;2022-08-01T03:26:27;15.27;;;2.97;;
51921;SDS011;37948;53.260;6.394;2022-08-01T03:28:55;16.23;;;2.75;;
51921;SDS011;37948;53.260;6.394;2022-08-01T03:31:25;12.07;;;2.75;;
51921;SDS011;37948;53.260;6.394;2022-08-01T03:33:52;16.23;;;2.90;;
51921;SDS011;37948;53.260;6.394;2022-08-01T03:36:19;19.83;;;3.58;;
51921;SDS011;37948;53.260;6.394;2022-08-01T03:38:48;12.18;;;2.65;;
51921;SDS011;37948;53.260;6.394;2022-08-01T03:41:21;16.30;;;3.05;;
51921;SDS011;37948;53.260;6.394;2022-08-01T03:43:51;13.52;;;3.15;;
51921;SDS011;37948;53.260;6.394;2022-08-01T03:46:20;9.15;;;2.60;;
51921;SDS011;37948;53.260;6.394;2022-08-01T03:48:53;14.98;;;3.28;;
51921;SDS011;37948;53.260;6.394;2022-08-01T03:51:21;16.48;;;2.75;;
51921;SDS011;37948;53.260;6.394;2022-08-01T03:53:48;11.30;;;3.05;;
51921;SDS011;37948;53.260;6.394;2022-08-01T03:56:16;15.63;;;2.92;;
51921;SDS011;37948;53.260;6.394;2022-08-01T03:58:46;12.80;;;3.50;;
51921;SDS011;37948;53.260;6.394;2022-08-01T04:01:12;15.85;;;3.03;;
51921;SDS011;37948;53.260;6.394;2022-08-01T04:03:39;18.00;;;3.10;;
51921;SDS011;37948;53.260;6.394;2022-08-01T04:06:06;10.68;;;2.58;;
51921;SDS011;37948;53.260;6.394;2022-08-01T04:08:39;15.48;;;3.50;;
51921;SDS011;37948;53.260;6.394;2022-08-01T04:11:07;16.42;;;3.58;;
51921;SDS011;37948;53.260;6.394;2022-08-01T04:13:34;13.45;;;2.72;;
51921;SDS011;37948;53.260;6.394;2022-08-01T04:15:59;16.65;;;3.03;;
51921;SDS011;37948;53.260;6.394;2022-08-01T04:18:25;11.95;;;3.30;;
51921;SDS011;37948;53.260;6.394;2022-08-01T04:20:51;17.85;;;3.25;;
51921;SDS011;37948;53.260;6.394;2022-08-01T04:23:19;13.73;;;2.90;;
51921;SDS011;37948;53.260;6.394;2022-08-01T04:25:51;16.40;;;3.28;;
51921;SDS011;37948;53.260;6.394;2022-08-01T04:28:19;17.10;;;3.17;;
51921;SDS011;37948;53.260;6.394;2022-08-01T04:30:46;18.88;;;4.68;;
51921;SDS011;37948;53.260;6.394;2022-08-01T04:33:15;16.85;;;2.92;;
51921;SDS011;37948;53.260;6.394;2022-08-01T04:35:43;17.33;;;3.40;;
51921;SDS011;37948;53.260;6.394;2022-08-01T04:38:10;14.15;;;2.90;;
51921;SDS011;37948;53.260;6.394;2022-08-01T04:40:42;12.93;;;2.47;;
51921;SDS011;37948;53.260;6.394;2022-08-01T04:43:10;18.83;;;3.33;;
51921;SDS011;37948;53.260;6.394;2022-08-01T04:45:36;15.18;;;3.55;;
51921;SDS011;37948;53.260;6.394;2022-08-01T04:48:06;18.17;;;2.90;;
51921;SDS011;37948;53.260;6.394;2022-08-01T04:50:34;19.27;;;3.67;;
51921;SDS011;37948;53.260;6.394;2022-08-01T04:53:01;11.55;;;3.10;;
51921;SDS011;37948;53.260;6.394;2022-08-01T04:55:31;15.07;;;2.78;;
51921;SDS011;37948;53.260;6.394;2022-08-01T04:57:56;17.85;;;2.75;;
51921;SDS011;37948;53.260;6.394;2022-08-01T05:00:22;9.48;;;2.95;;
51921;SDS011;37948;53.260;6.394;2022-08-01T05:02:47;11.57;;;2.90;;
51921;SDS011;37948;53.260;6.394;2022-08-01T05:05:13;13.52;;;3.15;;
51921;SDS011;37948;53.260;6.394;2022-08-01T05:07:41;16.55;;;3.08;;
51921;SDS011;37948;53.260;6.394;2022-08-01T05:10:07;14.65;;;2.53;;
51921;SDS011;37948;53.260;6.394;2022-08-01T05:12:32;16.27;;;3.40;;
51921;SDS011;37948;53.260;6.394;2022-08-01T05:15:00;14.15;;;3.20;;
51921;SDS011;37948;53.260;6.394;2022-08-01T05:17:26;19.42;;;3.70;;
51921;SDS011;37948;53.260;6.394;2022-08-01T05:19:52;17.30;;;3.10;;
51921;SDS011;37948;53.260;6.394;2022-08-01T05:22:18;14.38;;;2.47;;
51921;SDS011;37948;53.260;6.394;2022-08-01T05:24:43;17.40;;;3.08;;
51921;SDS011;37948;53.260;6.394;2022-08-01T05:27:09;20.80;;;3.22;;
51921;SDS011;37948;53.260;6.394;2022-08-01T05:29:35;14.13;;;3.05;;
51921;SDS011;37948;53.260;6.394;2022-08-01T05:32:04;12.77;;;2.50;;
51921;SDS011;37948;53.260;6.394;2022-08-01T05:34:30;12.10;;;2.88;;
51921;SDS011;37948;53.260;6.394;2022-08-01T05:36:55;21.52;;;3.80;;
51921;SDS011;37948;53.260;6.394;2022-08-01T05:39:21;13.23;;;3.33;;
51921;SDS011;37948;53.260;6.394;2022-08-01T05:41:46;16.83;;;3.38;;
51921;SDS011;37948;53.260;6.394;2022-08-01T05:44:12;21.63;;;3.30;;
51921;SDS011;37948;53.260;6.394;2022-08-01T05:46:38;17.33;;;2.80;;
51921;SDS011;37948;53.260;6.394;2022-08-01T05:49:05;14.55;;;3.67;;
51921;SDS011;37948;53.260;6.394;2022-08-01T05:51:31;21.13;;;3.25;;
51921;SDS011;37948;53.260;6.394;2022-08-01T05:53:56;18.10;;;3.15;;
51921;SDS011;37948;53.260;6.394;2022-08-01T05:56:22;26.95;;;3.97;;
51921;SDS011;37948;53.260;6.394;2022-08-01T05:58:49;16.70;;;3.17;;
51921;SDS011;37948;53.260;6.394;2022-08-01T06:01:15;12.65;;;2.85;;
51921;SDS011;37948;53.260;6.394;2022-08-01T06:03:42;16.30;;;3.08;;
51921;SDS011;37948;53.260;6.394;2022-08-01T06:06:07;11.75;;;2.85;;
51921;SDS011;37948;53.260;6.394;2022-08-01T06:08:33;16.77;;;3.30;;
51921;SDS011;37948;53.260;6.394;2022-08-01T06:10:59;10.15;;;2.45;;
51921;SDS011;37948;53.260;6.394;2022-08-01T06:13:25;12.55;;;2.58;;
51921;SDS011;37948;53.260;6.394;2022-08-01T06:15:50;17.30;;;2.38;;
51921;SDS011;37948;53.260;6.394;2022-08-01T06:18:16;13.13;;;3.05;;
51921;SDS011;37948;53.260;6.394;2022-08-01T06:20:43;19.45;;;3.80;;
51921;SDS011;37948;53.260;6.394;2022-08-01T06:23:09;15.00;;;2.80;;
51921;SDS011;37948;53.260;6.394;2022-08-01T06:25:34;13.75;;;2.85;;
51921;SDS011;37948;53.260;6.394;2022-08-01T06:28:01;12.60;;;2.35;;
51921;SDS011;37948;53.260;6.394;2022-08-01T06:30:27;10.90;;;3.22;;
51921;SDS011;37948;53.260;6.394;2022-08-01T06:32:53;11.45;;;2.58;;
51921;SDS011;37948;53.260;6.394;2022-08-01T06:35:21;15.50;;;2.70;;
51921;SDS011;37948;53.260;6.394;2022-08-01T06:37:48;12.68;;;2.50;;
51921;SDS011;37948;53.260;6.394;2022-08-01T06:40:14;15.23;;;2.28;;
51921;SDS011;37948;53.260;6.394;2022-08-01T06:42:40;10.02;;;2.45;;
51921;SDS011;37948;53.260;6.394;2022-08-01T06:45:09;11.07;;;1.90;;
51921;SDS011;37948;53.260;6.394;2022-08-01T06:47:36;21.40;;;2.78;;
51921;SDS011;37948;53.260;6.394;2022-08-01T06:50:03;12.80;;;2.67;;
51921;SDS011;37948;53.260;6.394;2022-08-01T06:52:30;22.25;;;3.38;;
51921;SDS011;37948;53.260;6.394;2022-08-01T06:54:57;14.38;;;2.17;;
51921;SDS011;37948;53.260;6.394;2022-08-01T06:57:22;8.88;;;2.20;;
51921;SDS011;37948;53.260;6.394;2022-08-01T06:59:48;15.18;;;2.58;;
51921;SDS011;37948;53.260;6.394;2022-08-01T07:02:14;8.45;;;2.30;;
51921;SDS011;37948;53.260;6.394;2022-08-01T07:04:40;16.10;;;2.00;;
51921;SDS011;37948;53.260;6.394;2022-08-01T07:07:06;10.07;;;2.33;;
51921;SDS011;37948;53.260;6.394;2022-08-01T07:09:32;14.77;;;2.78;;
51921;SDS011;37948;53.260;6.394;2022-08-01T07:11:57;11.05;;;2.53;;
51921;SDS011;37948;53.260;6.394;2022-08-01T07:14:24;6.22;;;1.65;;
51921;SDS011;37948;53.260;6.394;2022-08-01T07:16:50;20.15;;;3.60;;
51921;SDS011;37948;53.260;6.394;2022-08-01T07:19:16;12.73;;;2.25;;
51921;SDS011;37948;53.260;6.394;2022-08-01T07:21:42;9.43;;;1.98;;
51921;SDS011;37948;53.260;6.394;2022-08-01T07:24:08;17.63;;;3.08;;
51921;SDS011;37948;53.260;6.394;2022-08-01T07:26:35;10.20;;;2.30;;
51921;SDS011;37948;53.260;6.394;2022-08-01T07:29:01;18.92;;;3.00;;
51921;SDS011;37948;53.260;6.394;2022-08-01T07:31:27;10.52;;;1.77;;
51921;SDS011;37948;53.260;6.394;2022-08-01T07:33:54;15.00;;;2.65;;
51921;SDS011;37948;53.260;6.394;2022-08-01T07:36:19;4.35;;;1.40;;
51921;SDS011;37948;53.260;6.394;2022-08-01T07:38:45;13.10;;;2.67;;
51921;SDS011;37948;53.260;6.394;2022-08-01T07:41:11;9.13;;;2.22;;
51921;SDS011;37948;53.260;6.394;2022-08-01T07:43:38;12.20;;;2.28;;
51921;SDS011;37948;53.260;6.394;2022-08-01T07:46:07;11.45;;;2.40;;
51921;SDS011;37948;53.260;6.394;2022-08-01T07:48:33;17.50;;;2.13;;
51921;SDS011;37948;53.260;6.394;2022-08-01T07:50:58;11.40;;;2.28;;
51921;SDS011;37948;53.260;6.394;2022-08-01T07:53:24;10.05;;;1.95;;
51921;SDS011;37948;53.260;6.394;2022-08-01T07:55:50;9.55;;;1.83;;
51921;SDS011;37948;53.260;6.394;2022-08-01T07:58:16;8.93;;;1.80;;
51921;SDS011;37948;53.260;6.394;2022-08-01T08:00:42;12.93;;;1.83;;
51921;SDS011;37948;53.260;6.394;2022-08-01T08:03:08;13.43;;;1.70;;
51921;SDS011;37948;53.260;6.394;2022-08-01T08:05:34;11.80;;;1.52;;
51921;SDS011;37948;53.260;6.394;2022-08-01T08:08:01;9.00;;;1.70;;
51921;SDS011;37948;53.260;6.394;2022-08-01T08:10:31;6.72;;;2.03;;
51921;SDS011;37948;53.260;6.394;2022-08-01T08:12:56;17.05;;;2.55;;
51921;SDS011;37948;53.260;6.394;2022-08-01T08:15:22;8.75;;;1.70;;
51921;SDS011;37948;53.260;6.394;2022-08-01T08:17:48;12.23;;;1.80;;
51921;SDS011;37948;53.260;6.394;2022-08-01T08:20:13;11.48;;;1.58;;
51921;SDS011;37948;53.260;6.394;2022-08-01T08:22:39;15.93;;;1.55;;
51921;SDS011;37948;53.260;6.394;2022-08-01T08:25:09;9.10;;;2.17;;
51921;SDS011;37948;53.260;6.394;2022-08-01T08:27:35;9.93;;;2.05;;
51921;SDS011;37948;53.260;6.394;2022-08-01T08:30:01;12.35;;;1.90;;
51921;SDS011;37948;53.260;6.394;2022-08-01T08:32:30;11.23;;;2.17;;
51921;SDS011;37948;53.260;6.394;2022-08-01T08:34:55;6.32;;;1.40;;
51921;SDS011;37948;53.260;6.394;2022-08-01T08:37:22;9.35;;;1.80;;
51921;SDS011;37948;53.260;6.394;2022-08-01T08:39:47;9.25;;;1.45;;
51921;SDS011;37948;53.260;6.394;2022-08-01T08:42:13;13.18;;;1.95;;
51921;SDS011;37948;53.260;6.394;2022-08-01T08:44:42;14.23;;;2.42;;
51921;SDS011;37948;53.260;6.394;2022-08-01T08:47:08;9.70;;;2.13;;
51921;SDS011;37948;53.260;6.394;2022-08-01T08:49:36;10.65;;;1.67;;
51921;SDS011;37948;53.260;6.394;2022-08-01T08:52:03;14.95;;;2.53;;
51921;SDS011;37948;53.260;6.394;2022-08-01T08:54:30;8.80;;;1.88;;
51921;SDS011;37948;53.260;6.394;2022-08-01T08:56:57;12.43;;;1.88;;
51921;SDS011;37948;53.260;6.394;2022-08-01T08:59:24;7.78;;;1.55;;
51921;SDS011;37948;53.260;6.394;2022-08-01T09:01:50;8.57;;;1.58;;
51921;SDS011;37948;53.260;6.394;2022-08-01T09:04:16;18.10;;;3.20;;
51921;SDS011;37948;53.260;6.394;2022-08-01T09:06:42;9.90;;;1.85;;
51921;SDS011;37948;53.260;6.394;2022-08-01T09:09:08;9.23;;;1.80;;
51921;SDS011;37948;53.260;6.394;2022-08-01T09:11:35;11.15;;;1.77;;
51921;SDS011;37948;53.260;6.394;2022-08-01T09:16:47;11.18;;;1.52;;
51921;SDS011;37948;53.260;6.394;2022-08-01T09:19:23;6.20;;;1.55;;
51921;SDS011;37948;53.260;6.394;2022-08-01T09:21:56;9.15;;;1.42;;
51921;SDS011;37948;53.260;6.394;2022-08-01T09:24:27;6.38;;;1.65;;
51921;SDS011;37948;53.260;6.394;2022-08-01T09:26:54;5.88;;;1.52;;
51921;SDS011;37948;53.260;6.394;2022-08-01T09:29:24;8.35;;;1.25;;
51921;SDS011;37948;53.260;6.394;2022-08-01T09:31:52;8.52;;;1.30;;
51921;SDS011;37948;53.260;6.394;2022-08-01T09:34:27;15.52;;;1.88;;
51921;SDS011;37948;53.260;6.394;2022-08-01T09:36:56;13.77;;;1.55;;
51921;SDS011;37948;53.260;6.394;2022-08-01T09:39:27;7.25;;;1.58;;
51921;SDS011;37948;53.260;6.394;2022-08-01T09:42:01;10.30;;;1.75;;
51921;SDS011;37948;53.260;6.394;2022-08-01T09:44:45;7.57;;;1.67;;
51921;SDS011;37948;53.260;6.394;2022-08-01T09:47:12;13.48;;;1.90;;
51921;SDS011;37948;53.260;6.394;2022-08-01T09:49:39;6.15;;;1.65;;
51921;SDS011;37948;53.260;6.394;2022-08-01T09:52:10;9.20;;;1.58;;
51921;SDS011;37948;53.260;6.394;2022-08-01T09:54:37;7.70;;;1.40;;
51921;SDS011;37948;53.260;6.394;2022-08-01T09:57:07;5.90;;;1.35;;
51921;SDS011;37948;53.260;6.394;2022-08-01T09:59:34;7.15;;;1.60;;
51921;SDS011;37948;53.260;6.394;2022-08-01T10:02:01;10.27;;;1.67;;
51921;SDS011;37948;53.260;6.394;2022-08-01T10:04:27;9.52;;;1.23;;
51921;SDS011;37948;53.260;6.394;2022-08-01T10:06:53;5.68;;;1.27;;
51921;SDS011;37948;53.260;6.394;2022-08-01T10:09:32;7.25;;;1.40;;
51921;SDS011;37948;53.260;6.394;2022-08-01T10:11:59;6.88;;;1.63;;
51921;SDS011;37948;53.260;6.394;2022-08-01T10:14:26;8.88;;;1.10;;
51921;SDS011;37948;53.260;6.394;2022-08-01T10:16:54;7.63;;;1.20;;
51921;SDS011;37948;53.260;6.394;2022-08-01T10:19:24;8.57;;;1.40;;
51921;SDS011;37948;53.260;6.394;2022-08-01T10:21:51;7.22;;;1.25;;
51921;SDS011;37948;53.260;6.394;2022-08-01T10:24:19;9.73;;;1.88;;
51921;SDS011;37948;53.260;6.394;2022-08-01T10:26:48;10.57;;;1.75;;
51921;SDS011;37948;53.260;6.394;2022-08-01T10:29:16;6.15;;;1.83;;
51921;SDS011;37948;53.260;6.394;2022-08-01T10:31:45;4.43;;;0.93;;
51921;SDS011;37948;53.260;6.394;2022-08-01T10:34:12;5.10;;;1.35;;
51921;SDS011;37948;53.260;6.394;2022-08-01T10:36:41;7.10;;;1.35;;
51921;SDS011;37948;53.260;6.394;2022-08-01T10:39:09;3.45;;;0.90;;
51921;SDS011;37948;53.260;6.394;2022-08-01T10:41:35;7.32;;;1.38;;
51921;SDS011;37948;53.260;6.394;2022-08-01T10:44:14;5.90;;;1.52;;
51921;SDS011;37948;53.260;6.394;2022-08-01T10:46:42;3.60;;;1.10;;
51921;SDS011;37948;53.260;6.394;2022-08-01T10:49:14;6.75;;;1.00;;
51921;SDS011;37948;53.260;6.394;2022-08-01T10:51:43;7.20;;;1.10;;
51921;SDS011;37948;53.260;6.394;2022-08-01T10:54:10;7.13;;;1.20;;
51921;SDS011;37948;53.260;6.394;2022-08-01T10:56:48;5.53;;;1.80;;
51921;SDS011;37948;53.260;6.394;2022-08-01T10:59:25;10.32;;;1.55;;
51921;SDS011;37948;53.260;6.394;2022-08-01T11:01:56;6.05;;;1.15;;
51921;SDS011;37948;53.260;6.394;2022-08-01T11:04:28;6.13;;;1.50;;
51921;SDS011;37948;53.260;6.394;2022-08-01T11:07:17;5.80;;;1.40;;
51921;SDS011;37948;53.260;6.394;2022-08-01T11:09:47;3.72;;;1.20;;
51921;SDS011;37948;53.260;6.394;2022-08-01T11:12:37;7.15;;;1.15;;
51921;SDS011;37948;53.260;6.394;2022-08-01T11:17:44;3.10;;;0.85;;
51921;SDS011;37948;53.260;6.394;2022-08-01T11:20:15;5.45;;;1.00;;
51921;SDS011;37948;53.260;6.394;2022-08-01T11:30:40;11.13;;;1.42;;
51921;SDS011;37948;53.260;6.394;2022-08-01T11:33:06;5.93;;;1.30;;
51921;SDS011;37948;53.260;6.394;2022-08-01T11:35:32;8.35;;;1.60;;
51921;SDS011;37948;53.260;6.394;2022-08-01T11:41:08;8.93;;;1.80;;
51921;SDS011;37948;53.260;6.394;2022-08-01T11:49:34;4.35;;;0.82;;
51921;SDS011;37948;53.260;6.394;2022-08-01T11:52:22;3.08;;;0.93;;
51921;SDS011;37948;53.260;6.394;2022-08-01T11:55:11;4.88;;;0.80;;
51921;SDS011;37948;53.260;6.394;2022-08-01T11:57:41;4.07;;;0.70;;
51921;SDS011;37948;53.260;6.394;2022-08-01T12:00:11;9.93;;;1.27;;
51921;SDS011;37948;53.260;6.394;2022-08-01T12:07:34;6.38;;;1.40;;
51921;SDS011;37948;53.260;6.394;2022-08-01T12:10:08;4.63;;;1.25;;
51921;SDS011;37948;53.260;6.394;2022-08-01T12:12:37;6.68;;;1.00;;
51921;SDS011;37948;53.260;6.394;2022-08-01T12:15:07;3.03;;;0.85;;
51921;SDS011;37948;53.260;6.394;2022-08-01T12:17:36;3.63;;;0.73;;
51921;SDS011;37948;53.260;6.394;2022-08-01T12:20:09;5.32;;;1.20;;
51921;SDS011;37948;53.260;6.394;2022-08-01T12:22:37;4.47;;;1.02;;
51921;SDS011;37948;53.260;6.394;2022-08-01T12:25:15;5.00;;;1.65;;
51921;SDS011;37948;53.260;6.394;2022-08-01T12:27:43;4.53;;;1.38;;
51921;SDS011;37948;53.260;6.394;2022-08-01T12:30:11;3.17;;;0.93;;
51921;SDS011;37948;53.260;6.394;2022-08-01T12:32:38;5.22;;;1.08;;
51921;SDS011;37948;53.260;6.394;2022-08-01T12:35:09;4.93;;;1.02;;
51921;SDS011;37948;53.260;6.394;2022-08-01T12:37:40;8.85;;;1.95;;
51921;SDS011;37948;53.260;6.394;2022-08-01T12:40:20;10.43;;;1.42;;
51921;SDS011;37948;53.260;6.394;2022-08-01T12:42:54;8.20;;;0.82;;
51921;SDS011;37948;53.260;6.394;2022-08-01T12:45:21;3.40;;;0.95;;
51921;SDS011;37948;53.260;6.394;2022-08-01T12:47:48;4.53;;;1.23;;
51921;SDS011;37948;53.260;6.394;2022-08-01T12:50:18;8.55;;;1.40;;
51921;SDS011;37948;53.260;6.394;2022-08-01T12:52:49;5.55;;;1.15;;
51921;SDS011;37948;53.260;6.394;2022-08-01T12:57:43;3.95;;;0.95;;
51921;SDS011;37948;53.260;6.394;2022-08-01T13:03:01;6.05;;;1.15;;
51921;SDS011;37948;53.260;6.394;2022-08-01T13:05:40;5.68;;;1.00;;
51921;SDS011;37948;53.260;6.394;2022-08-01T13:08:17;4.78;;;1.30;;
51921;SDS011;37948;53.260;6.394;2022-08-01T13:10:45;3.33;;;1.17;;
51921;SDS011;37948;53.260;6.394;2022-08-01T13:13:12;5.25;;;1.55;;
51921;SDS011;37948;53.260;6.394;2022-08-01T13:15:39;3.08;;;0.93;;
51921;SDS011;37948;53.260;6.394;2022-08-01T13:23:40;4.93;;;1.17;;
51921;SDS011;37948;53.260;6.394;2022-08-01T13:26:07;9.68;;;2.35;;
51921;SDS011;37948;53.260;6.394;2022-08-01T13:28:34;17.95;;;2.40;;
51921;SDS011;37948;53.260;6.394;2022-08-01T13:31:06;11.70;;;1.90;;
51921;SDS011;37948;53.260;6.394;2022-08-01T13:36:13;9.57;;;0.98;;
51921;SDS011;37948;53.260;6.394;2022-08-01T13:38:40;3.15;;;1.30;;
51921;SDS011;37948;53.260;6.394;2022-08-01T13:41:25;8.68;;;1.73;;
51921;SDS011;37948;53.260;6.394;2022-08-01T13:43:52;4.78;;;0.73;;
51921;SDS011;37948;53.260;6.394;2022-08-01T13:46:17;5.85;;;1.52;;
51921;SDS011;37948;53.260;6.394;2022-08-01T13:48:44;6.55;;;1.30;;
51921;SDS011;37948;53.260;6.394;2022-08-01T13:51:10;3.08;;;0.90;;
51921;SDS011;37948;53.260;6.394;2022-08-01T13:53:35;5.85;;;1.20;;
51921;SDS011;37948;53.260;6.394;2022-08-01T13:56:02;7.10;;;1.60;;
51921;SDS011;37948;53.260;6.394;2022-08-01T13:58:28;7.75;;;1.70;;
51921;SDS011;37948;53.260;6.394;2022-08-01T14:00:53;8.05;;;1.42;;
51921;SDS011;37948;53.260;6.394;2022-08-01T14:03:20;9.15;;;1.00;;
51921;SDS011;37948;53.260;6.394;2022-08-01T14:05:46;6.65;;;1.05;;
51921;SDS011;37948;53.260;6.394;2022-08-01T14:08:12;5.35;;;1.13;;
51921;SDS011;37948;53.260;6.394;2022-08-01T14:10:39;6.22;;;1.60;;
51921;SDS011;37948;53.260;6.394;2022-08-01T14:13:05;5.32;;;1.38;;
51921;SDS011;37948;53.260;6.394;2022-08-01T14:15:30;6.90;;;1.67;;
51921;SDS011;37948;53.260;6.394;2022-08-01T14:17:57;12.25;;;1.73;;
51921;SDS011;37948;53.260;6.394;2022-08-01T14:20:24;5.82;;;1.17;;
51921;SDS011;37948;53.260;6.394;2022-08-01T14:22:50;9.48;;;1.60;;
51921;SDS011;37948;53.260;6.394;2022-08-01T14:25:15;5.47;;;1.30;;
51921;SDS011;37948;53.260;6.394;2022-08-01T14:27:43;7.03;;;1.50;;
51921;SDS011;37948;53.260;6.394;2022-08-01T14:30:09;7.78;;;1.65;;
51921;SDS011;37948;53.260;6.394;2022-08-01T14:32:36;6.05;;;1.27;;
51921;SDS011;37948;53.260;6.394;2022-08-01T14:35:02;7.45;;;1.23;;
51921;SDS011;37948;53.260;6.394;2022-08-01T14:37:30;11.27;;;1.50;;
51921;SDS011;37948;53.260;6.394;2022-08-01T14:39:56;4.82;;;1.23;;
51921;SDS011;37948;53.260;6.394;2022-08-01T14:42:23;5.65;;;1.30;;
51921;SDS011;37948;53.260;6.394;2022-08-01T14:44:48;5.93;;;0.93;;
51921;SDS011;37948;53.260;6.394;2022-08-01T14:47:14;5.10;;;1.27;;
51921;SDS011;37948;53.260;6.394;2022-08-01T14:49:40;10.75;;;1.45;;
51921;SDS011;37948;53.260;6.394;2022-08-01T14:52:05;9.40;;;1.75;;
51921;SDS011;37948;53.260;6.394;2022-08-01T14:54:31;5.28;;;1.17;;
51921;SDS011;37948;53.260;6.394;2022-08-01T14:56:57;7.68;;;1.60;;
51921;SDS011;37948;53.260;6.394;2022-08-01T14:59:22;6.65;;;1.30;;
51921;SDS011;37948;53.260;6.394;2022-08-01T15:01:48;8.75;;;1.30;;
51921;SDS011;37948;53.260;6.394;2022-08-01T15:04:13;7.70;;;1.35;;
51921;SDS011;37948;53.260;6.394;2022-08-01T15:06:39;5.45;;;1.17;;
51921;SDS011;37948;53.260;6.394;2022-08-01T15:09:05;8.00;;;1.80;;
51921;SDS011;37948;53.260;6.394;2022-08-01T15:11:30;9.10;;;1.52;;
51921;SDS011;37948;53.260;6.394;2022-08-01T15:13:56;9.77;;;1.38;;
51921;SDS011;37948;53.260;6.394;2022-08-01T15:16:41;5.63;;;1.60;;
51921;SDS011;37948;53.260;6.394;2022-08-01T15:19:07;12.38;;;1.67;;
51921;SDS011;37948;53.260;6.394;2022-08-01T15:21:33;10.40;;;1.65;;
51921;SDS011;37948;53.260;6.394;2022-08-01T15:23:58;5.30;;;1.45;;
51921;SDS011;37948;53.260;6.394;2022-08-01T15:26:24;5.93;;;1.27;;
51921;SDS011;37948;53.260;6.394;2022-08-01T15:28:50;5.03;;;1.05;;
51921;SDS011;37948;53.260;6.394;2022-08-01T15:31:15;5.60;;;1.38;;
51921;SDS011;37948;53.260;6.394;2022-08-01T15:33:41;7.28;;;1.70;;
51921;SDS011;37948;53.260;6.394;2022-08-01T15:36:09;5.45;;;1.60;;
51921;SDS011;37948;53.260;6.394;2022-08-01T15:38:35;6.25;;;1.10;;
51921;SDS011;37948;53.260;6.394;2022-08-01T15:41:03;6.97;;;1.67;;
51921;SDS011;37948;53.260;6.394;2022-08-01T15:43:29;4.22;;;1.10;;
51921;SDS011;37948;53.260;6.394;2022-08-01T15:45:54;17.40;;;1.05;;